sensor_id;sensor_type;location;lat;lon;timestamp;P1;durP1;ratioP1;P2;durP2;ratioP2
57643;SDS011;43474;46.510;6.686;2024-03-02T00:00:04;2.47;;;1.75;;
57643;SDS011;43474;46.510;6.686;2024-03-02T00:02:59;3.58;;;2.15;;
57643;SDS011;43474;46.510;6.686;2024-03-02T00:05:24;6.70;;;2.83;;
57643;SDS011;43474;46.510;6.686;2024-03-02T00:07:54;3.88;;;2.20;;
57643;SDS011;43474;46.510;6.686;2024-03-02T00:10:39;3.55;;;2.03;;
57643;SDS011;43474;46.510;6.686;2024-03-02T00:13:06;9.13;;;2.47;;
57643;SDS011;43474;46.510;6.686;2024-03-02T00:15:42;2.22;;;1.50;;
57643;SDS011;43474;46.510;6.686;2024-03-02T00:18:13;4.82;;;2.15;;
57643;SDS011;43474;46.510;6.686;2024-03-02T00:20:43;1.40;;;1.15;;
57643;SDS011;43474;46.510;6.686;2024-03-02T00:23:09;2.58;;;2.17;;
57643;SDS011;43474;46.510;6.686;2024-03-02T00:25:43;1.65;;;1.52;;
57643;SDS011;43474;46.510;6.686;2024-03-02T00:31:11;1.50;;;1.40;;
57643;SDS011;43474;46.510;6.686;2024-03-02T00:36:11;6.22;;;1.35;;
57643;SDS011;43474;46.510;6.686;2024-03-02T00:41:21;1.45;;;1.23;;
57643;SDS011;43474;46.510;6.686;2024-03-02T00:48:54;2.67;;;1.40;;
57643;SDS011;43474;46.510;6.686;2024-03-02T00:51:21;2.53;;;2.17;;
57643;SDS011;43474;46.510;6.686;2024-03-02T00:53:48;4.55;;;1.27;;
57643;SDS011;43474;46.510;6.686;2024-03-02T00:56:14;2.53;;;1.58;;
57643;SDS011;43474;46.510;6.686;2024-03-02T00:58:40;3.08;;;1.75;;
57643;SDS011;43474;46.510;6.686;2024-03-02T01:01:06;6.28;;;2.40;;
57643;SDS011;43474;46.510;6.686;2024-03-02T01:03:33;1.58;;;1.48;;
57643;SDS011;43474;46.510;6.686;2024-03-02T01:05:59;2.97;;;1.60;;
57643;SDS011;43474;46.510;6.686;2024-03-02T01:08:25;2.90;;;1.27;;
57643;SDS011;43474;46.510;6.686;2024-03-02T01:10:51;2.25;;;1.52;;
57643;SDS011;43474;46.510;6.686;2024-03-02T01:13:17;1.98;;;1.63;;
57643;SDS011;43474;46.510;6.686;2024-03-02T01:15:42;2.70;;;1.88;;
57643;SDS011;43474;46.510;6.686;2024-03-02T01:18:09;4.13;;;1.98;;
57643;SDS011;43474;46.510;6.686;2024-03-02T01:20:34;4.28;;;1.75;;
57643;SDS011;43474;46.510;6.686;2024-03-02T01:23:00;4.40;;;1.63;;
57643;SDS011;43474;46.510;6.686;2024-03-02T01:25:26;2.40;;;1.85;;
57643;SDS011;43474;46.510;6.686;2024-03-02T01:27:52;3.45;;;2.00;;
57643;SDS011;43474;46.510;6.686;2024-03-02T01:30:17;3.00;;;1.90;;
57643;SDS011;43474;46.510;6.686;2024-03-02T01:32:43;3.15;;;1.92;;
57643;SDS011;43474;46.510;6.686;2024-03-02T01:35:08;7.45;;;2.20;;
57643;SDS011;43474;46.510;6.686;2024-03-02T01:37:34;4.20;;;2.85;;
57643;SDS011;43474;46.510;6.686;2024-03-02T01:40:00;3.42;;;2.45;;
57643;SDS011;43474;46.510;6.686;2024-03-02T01:42:26;2.97;;;1.30;;
57643;SDS011;43474;46.510;6.686;2024-03-02T01:44:51;3.03;;;1.75;;
57643;SDS011;43474;46.510;6.686;2024-03-02T01:47:17;2.92;;;1.58;;
57643;SDS011;43474;46.510;6.686;2024-03-02T01:49:43;3.38;;;2.45;;
57643;SDS011;43474;46.510;6.686;2024-03-02T01:52:09;7.07;;;2.90;;
57643;SDS011;43474;46.510;6.686;2024-03-02T01:54:34;2.65;;;1.52;;
57643;SDS011;43474;46.510;6.686;2024-03-02T01:57:00;5.10;;;2.80;;
57643;SDS011;43474;46.510;6.686;2024-03-02T01:59:25;4.13;;;2.22;;
57643;SDS011;43474;46.510;6.686;2024-03-02T02:01:52;3.00;;;1.73;;
57643;SDS011;43474;46.510;6.686;2024-03-02T02:04:17;3.40;;;2.55;;
57643;SDS011;43474;46.510;6.686;2024-03-02T02:06:43;5.13;;;2.22;;
57643;SDS011;43474;46.510;6.686;2024-03-02T02:09:09;3.08;;;2.67;;
57643;SDS011;43474;46.510;6.686;2024-03-02T02:11:35;3.05;;;1.95;;
57643;SDS011;43474;46.510;6.686;2024-03-02T02:14:01;4.63;;;2.90;;
57643;SDS011;43474;46.510;6.686;2024-03-02T02:16:26;3.00;;;1.70;;
57643;SDS011;43474;46.510;6.686;2024-03-02T02:18:52;5.35;;;2.88;;
57643;SDS011;43474;46.510;6.686;2024-03-02T02:21:18;3.10;;;1.77;;
57643;SDS011;43474;46.510;6.686;2024-03-02T02:23:47;4.55;;;1.98;;
57643;SDS011;43474;46.510;6.686;2024-03-02T02:26:14;2.20;;;1.58;;
57643;SDS011;43474;46.510;6.686;2024-03-02T02:28:39;2.85;;;2.60;;
57643;SDS011;43474;46.510;6.686;2024-03-02T02:31:15;2.22;;;1.13;;
57643;SDS011;43474;46.510;6.686;2024-03-02T02:33:41;1.98;;;1.48;;
57643;SDS011;43474;46.510;6.686;2024-03-02T02:36:08;2.58;;;1.92;;
57643;SDS011;43474;46.510;6.686;2024-03-02T02:38:36;4.30;;;1.80;;
57643;SDS011;43474;46.510;6.686;2024-03-02T02:41:04;2.30;;;1.77;;
57643;SDS011;43474;46.510;6.686;2024-03-02T02:43:30;2.83;;;2.03;;
57643;SDS011;43474;46.510;6.686;2024-03-02T02:45:56;2.72;;;1.63;;
57643;SDS011;43474;46.510;6.686;2024-03-02T02:48:21;5.35;;;2.17;;
57643;SDS011;43474;46.510;6.686;2024-03-02T02:50:47;3.67;;;1.90;;
57643;SDS011;43474;46.510;6.686;2024-03-02T02:53:13;4.20;;;2.63;;
57643;SDS011;43474;46.510;6.686;2024-03-02T02:55:39;1.52;;;1.20;;
57643;SDS011;43474;46.510;6.686;2024-03-02T02:58:06;3.17;;;1.65;;
57643;SDS011;43474;46.510;6.686;2024-03-02T03:00:32;3.85;;;2.10;;
57643;SDS011;43474;46.510;6.686;2024-03-02T03:02:57;2.53;;;2.13;;
57643;SDS011;43474;46.510;6.686;2024-03-02T03:05:23;1.83;;;1.67;;
57643;SDS011;43474;46.510;6.686;2024-03-02T03:07:49;2.90;;;1.98;;
57643;SDS011;43474;46.510;6.686;2024-03-02T03:10:15;5.22;;;2.20;;
57643;SDS011;43474;46.510;6.686;2024-03-02T03:12:42;4.47;;;1.65;;
57643;SDS011;43474;46.510;6.686;2024-03-02T03:15:09;2.45;;;1.60;;
57643;SDS011;43474;46.510;6.686;2024-03-02T03:17:35;2.03;;;1.75;;
57643;SDS011;43474;46.510;6.686;2024-03-02T03:20:02;3.75;;;2.47;;
57643;SDS011;43474;46.510;6.686;2024-03-02T03:22:29;1.08;;;1.08;;
57643;SDS011;43474;46.510;6.686;2024-03-02T03:24:56;2.47;;;2.10;;
57643;SDS011;43474;46.510;6.686;2024-03-02T03:27:22;14.10;;;1.98;;
57643;SDS011;43474;46.510;6.686;2024-03-02T03:29:48;3.35;;;1.83;;
57643;SDS011;43474;46.510;6.686;2024-03-02T03:32:13;3.45;;;1.65;;
57643;SDS011;43474;46.510;6.686;2024-03-02T03:34:39;3.97;;;1.70;;
57643;SDS011;43474;46.510;6.686;2024-03-02T03:37:05;2.40;;;1.55;;
57643;SDS011;43474;46.510;6.686;2024-03-02T03:39:31;3.70;;;1.50;;
57643;SDS011;43474;46.510;6.686;2024-03-02T03:41:56;2.42;;;1.88;;
57643;SDS011;43474;46.510;6.686;2024-03-02T03:44:22;3.08;;;2.28;;
57643;SDS011;43474;46.510;6.686;2024-03-02T03:46:48;2.83;;;2.42;;
57643;SDS011;43474;46.510;6.686;2024-03-02T03:49:14;2.83;;;1.27;;
57643;SDS011;43474;46.510;6.686;2024-03-02T03:51:39;2.92;;;1.83;;
57643;SDS011;43474;46.510;6.686;2024-03-02T03:54:05;5.28;;;2.53;;
57643;SDS011;43474;46.510;6.686;2024-03-02T03:56:30;4.90;;;2.65;;
57643;SDS011;43474;46.510;6.686;2024-03-02T03:58:56;2.78;;;1.95;;
57643;SDS011;43474;46.510;6.686;2024-03-02T04:01:21;3.75;;;1.75;;
57643;SDS011;43474;46.510;6.686;2024-03-02T04:03:48;3.30;;;1.90;;
57643;SDS011;43474;46.510;6.686;2024-03-02T04:06:13;1.23;;;1.10;;
57643;SDS011;43474;46.510;6.686;2024-03-02T04:08:41;5.55;;;1.50;;
57643;SDS011;43474;46.510;6.686;2024-03-02T04:11:07;1.55;;;1.17;;
57643;SDS011;43474;46.510;6.686;2024-03-02T04:13:33;2.13;;;1.67;;
57643;SDS011;43474;46.510;6.686;2024-03-02T04:15:58;4.72;;;2.17;;
57643;SDS011;43474;46.510;6.686;2024-03-02T04:18:24;1.52;;;1.13;;
57643;SDS011;43474;46.510;6.686;2024-03-02T04:20:50;1.85;;;1.55;;
57643;SDS011;43474;46.510;6.686;2024-03-02T04:23:16;3.13;;;1.65;;
57643;SDS011;43474;46.510;6.686;2024-03-02T04:25:41;2.83;;;2.10;;
57643;SDS011;43474;46.510;6.686;2024-03-02T04:28:07;2.30;;;1.77;;
57643;SDS011;43474;46.510;6.686;2024-03-02T04:30:32;2.35;;;1.90;;
57643;SDS011;43474;46.510;6.686;2024-03-02T04:32:59;3.25;;;1.60;;
57643;SDS011;43474;46.510;6.686;2024-03-02T04:35:24;1.75;;;1.40;;
57643;SDS011;43474;46.510;6.686;2024-03-02T04:37:50;3.78;;;1.27;;
57643;SDS011;43474;46.510;6.686;2024-03-02T04:40:16;4.38;;;0.95;;
57643;SDS011;43474;46.510;6.686;2024-03-02T04:42:42;2.10;;;1.67;;
57643;SDS011;43474;46.510;6.686;2024-03-02T04:45:08;3.15;;;1.75;;
57643;SDS011;43474;46.510;6.686;2024-03-02T04:47:34;3.22;;;1.77;;
57643;SDS011;43474;46.510;6.686;2024-03-02T04:50:00;3.65;;;1.88;;
57643;SDS011;43474;46.510;6.686;2024-03-02T04:52:25;1.80;;;1.48;;
57643;SDS011;43474;46.510;6.686;2024-03-02T04:54:51;2.00;;;1.77;;
57643;SDS011;43474;46.510;6.686;2024-03-02T04:57:42;2.67;;;1.98;;
57643;SDS011;43474;46.510;6.686;2024-03-02T05:00:09;4.03;;;1.65;;
57643;SDS011;43474;46.510;6.686;2024-03-02T05:02:35;2.33;;;1.63;;
57643;SDS011;43474;46.510;6.686;2024-03-02T05:05:01;2.40;;;1.63;;
57643;SDS011;43474;46.510;6.686;2024-03-02T05:07:28;1.63;;;1.40;;
57643;SDS011;43474;46.510;6.686;2024-03-02T05:09:53;2.47;;;1.90;;
57643;SDS011;43474;46.510;6.686;2024-03-02T05:12:19;2.83;;;1.67;;
57643;SDS011;43474;46.510;6.686;2024-03-02T05:15:04;2.10;;;1.00;;
57643;SDS011;43474;46.510;6.686;2024-03-02T05:17:29;2.45;;;1.58;;
57643;SDS011;43474;46.510;6.686;2024-03-02T05:19:55;3.20;;;1.55;;
57643;SDS011;43474;46.510;6.686;2024-03-02T05:22:21;3.42;;;1.60;;
57643;SDS011;43474;46.510;6.686;2024-03-02T05:24:46;3.90;;;2.10;;
57643;SDS011;43474;46.510;6.686;2024-03-02T05:27:12;3.13;;;1.80;;
57643;SDS011;43474;46.510;6.686;2024-03-02T05:29:38;1.35;;;1.23;;
57643;SDS011;43474;46.510;6.686;2024-03-02T05:32:03;1.55;;;1.38;;
57643;SDS011;43474;46.510;6.686;2024-03-02T05:34:29;2.90;;;2.17;;
57643;SDS011;43474;46.510;6.686;2024-03-02T05:36:56;2.33;;;1.90;;
57643;SDS011;43474;46.510;6.686;2024-03-02T05:39:23;3.72;;;0.93;;
57643;SDS011;43474;46.510;6.686;2024-03-02T05:41:49;4.82;;;2.65;;
57643;SDS011;43474;46.510;6.686;2024-03-02T05:44:14;3.88;;;1.75;;
57643;SDS011;43474;46.510;6.686;2024-03-02T05:46:41;3.92;;;1.83;;
57643;SDS011;43474;46.510;6.686;2024-03-02T05:49:07;4.28;;;1.63;;
57643;SDS011;43474;46.510;6.686;2024-03-02T05:51:33;1.95;;;1.70;;
57643;SDS011;43474;46.510;6.686;2024-03-02T05:53:59;3.92;;;2.13;;
57643;SDS011;43474;46.510;6.686;2024-03-02T05:56:24;1.23;;;1.13;;
57643;SDS011;43474;46.510;6.686;2024-03-02T05:58:50;2.70;;;1.35;;
57643;SDS011;43474;46.510;6.686;2024-03-02T06:01:38;2.65;;;1.38;;
57643;SDS011;43474;46.510;6.686;2024-03-02T06:04:12;1.60;;;0.88;;
57643;SDS011;43474;46.510;6.686;2024-03-02T06:06:38;1.70;;;1.25;;
57643;SDS011;43474;46.510;6.686;2024-03-02T06:09:05;2.22;;;1.83;;
57643;SDS011;43474;46.510;6.686;2024-03-02T06:11:37;5.50;;;2.40;;
57643;SDS011;43474;46.510;6.686;2024-03-02T06:14:04;5.43;;;1.70;;
57643;SDS011;43474;46.510;6.686;2024-03-02T06:16:31;1.63;;;1.15;;
57643;SDS011;43474;46.510;6.686;2024-03-02T06:18:57;2.00;;;1.27;;
57643;SDS011;43474;46.510;6.686;2024-03-02T06:21:23;2.00;;;1.15;;
57643;SDS011;43474;46.510;6.686;2024-03-02T06:23:50;1.55;;;1.45;;
57643;SDS011;43474;46.510;6.686;2024-03-02T06:26:16;2.13;;;1.30;;
57643;SDS011;43474;46.510;6.686;2024-03-02T06:28:42;6.38;;;2.65;;
57643;SDS011;43474;46.510;6.686;2024-03-02T06:31:08;1.20;;;1.10;;
57643;SDS011;43474;46.510;6.686;2024-03-02T06:33:34;3.40;;;1.48;;
57643;SDS011;43474;46.510;6.686;2024-03-02T06:36:00;1.77;;;1.27;;
57643;SDS011;43474;46.510;6.686;2024-03-02T06:38:26;2.50;;;1.48;;
57643;SDS011;43474;46.510;6.686;2024-03-02T06:40:52;2.45;;;1.45;;
57643;SDS011;43474;46.510;6.686;2024-03-02T06:43:17;2.22;;;1.73;;
57643;SDS011;43474;46.510;6.686;2024-03-02T06:45:43;1.98;;;1.35;;
57643;SDS011;43474;46.510;6.686;2024-03-02T06:48:09;1.33;;;1.10;;
57643;SDS011;43474;46.510;6.686;2024-03-02T06:50:34;1.10;;;0.90;;
57643;SDS011;43474;46.510;6.686;2024-03-02T06:53:00;2.00;;;1.63;;
57643;SDS011;43474;46.510;6.686;2024-03-02T06:55:25;1.48;;;1.38;;
57643;SDS011;43474;46.510;6.686;2024-03-02T06:57:51;1.85;;;1.48;;
57643;SDS011;43474;46.510;6.686;2024-03-02T07:00:17;0.85;;;0.70;;
57643;SDS011;43474;46.510;6.686;2024-03-02T07:02:45;0.77;;;0.77;;
57643;SDS011;43474;46.510;6.686;2024-03-02T07:05:12;2.58;;;1.17;;
57643;SDS011;43474;46.510;6.686;2024-03-02T07:07:38;1.33;;;1.05;;
57643;SDS011;43474;46.510;6.686;2024-03-02T07:10:04;2.47;;;1.67;;
57643;SDS011;43474;46.510;6.686;2024-03-02T07:12:30;3.30;;;1.80;;
57643;SDS011;43474;46.510;6.686;2024-03-02T07:14:56;1.17;;;0.93;;
57643;SDS011;43474;46.510;6.686;2024-03-02T07:17:32;1.27;;;1.13;;
57643;SDS011;43474;46.510;6.686;2024-03-02T07:19:57;2.05;;;1.42;;
57643;SDS011;43474;46.510;6.686;2024-03-02T07:22:23;0.65;;;0.65;;
57643;SDS011;43474;46.510;6.686;2024-03-02T07:24:49;1.73;;;1.35;;
57643;SDS011;43474;46.510;6.686;2024-03-02T07:27:16;2.55;;;1.27;;
57643;SDS011;43474;46.510;6.686;2024-03-02T07:29:42;2.53;;;1.35;;
57643;SDS011;43474;46.510;6.686;2024-03-02T07:32:08;0.95;;;0.82;;
57643;SDS011;43474;46.510;6.686;2024-03-02T07:34:35;1.92;;;1.17;;
57643;SDS011;43474;46.510;6.686;2024-03-02T07:37:01;2.28;;;1.33;;
57643;SDS011;43474;46.510;6.686;2024-03-02T07:39:27;3.28;;;2.03;;
57643;SDS011;43474;46.510;6.686;2024-03-02T07:41:54;3.60;;;1.85;;
57643;SDS011;43474;46.510;6.686;2024-03-02T07:44:20;4.85;;;2.33;;
57643;SDS011;43474;46.510;6.686;2024-03-02T07:46:46;3.92;;;1.63;;
57643;SDS011;43474;46.510;6.686;2024-03-02T07:49:15;2.85;;;1.77;;
57643;SDS011;43474;46.510;6.686;2024-03-02T07:51:41;3.35;;;1.67;;
57643;SDS011;43474;46.510;6.686;2024-03-02T07:54:07;3.13;;;1.90;;
57643;SDS011;43474;46.510;6.686;2024-03-02T07:56:33;5.68;;;1.65;;
57643;SDS011;43474;46.510;6.686;2024-03-02T07:58:59;2.00;;;1.17;;
57643;SDS011;43474;46.510;6.686;2024-03-02T08:01:30;2.90;;;1.92;;
57643;SDS011;43474;46.510;6.686;2024-03-02T08:03:57;2.45;;;1.80;;
57643;SDS011;43474;46.510;6.686;2024-03-02T08:06:27;3.00;;;1.77;;
57643;SDS011;43474;46.510;6.686;2024-03-02T08:08:57;4.82;;;2.03;;
57643;SDS011;43474;46.510;6.686;2024-03-02T08:11:23;2.78;;;1.52;;
57643;SDS011;43474;46.510;6.686;2024-03-02T08:13:49;3.03;;;1.80;;
57643;SDS011;43474;46.510;6.686;2024-03-02T08:16:15;2.58;;;1.70;;
57643;SDS011;43474;46.510;6.686;2024-03-02T08:18:41;3.63;;;2.15;;
57643;SDS011;43474;46.510;6.686;2024-03-02T08:21:08;3.83;;;2.03;;
57643;SDS011;43474;46.510;6.686;2024-03-02T08:23:34;6.03;;;1.65;;
57643;SDS011;43474;46.510;6.686;2024-03-02T08:26:00;1.98;;;1.25;;
57643;SDS011;43474;46.510;6.686;2024-03-02T08:28:26;2.05;;;1.27;;
57643;SDS011;43474;46.510;6.686;2024-03-02T08:30:52;3.83;;;1.38;;
57643;SDS011;43474;46.510;6.686;2024-03-02T08:33:17;1.77;;;1.55;;
57643;SDS011;43474;46.510;6.686;2024-03-02T08:35:44;2.10;;;1.63;;
57643;SDS011;43474;46.510;6.686;2024-03-02T08:38:09;2.50;;;1.40;;
57643;SDS011;43474;46.510;6.686;2024-03-02T08:40:35;2.60;;;1.50;;
57643;SDS011;43474;46.510;6.686;2024-03-02T08:43:01;6.60;;;1.35;;
57643;SDS011;43474;46.510;6.686;2024-03-02T08:45:26;2.08;;;1.30;;
57643;SDS011;43474;46.510;6.686;2024-03-02T08:47:52;1.88;;;1.55;;
57643;SDS011;43474;46.510;6.686;2024-03-02T08:50:18;2.58;;;1.00;;
57643;SDS011;43474;46.510;6.686;2024-03-02T08:52:44;3.85;;;1.27;;
57643;SDS011;43474;46.510;6.686;2024-03-02T08:55:09;2.53;;;1.40;;
57643;SDS011;43474;46.510;6.686;2024-03-02T08:57:36;1.98;;;1.20;;
57643;SDS011;43474;46.510;6.686;2024-03-02T09:00:06;1.80;;;1.05;;
57643;SDS011;43474;46.510;6.686;2024-03-02T09:02:35;1.00;;;0.90;;
57643;SDS011;43474;46.510;6.686;2024-03-02T09:05:01;1.33;;;1.00;;
57643;SDS011;43474;46.510;6.686;2024-03-02T09:07:27;2.17;;;1.23;;
57643;SDS011;43474;46.510;6.686;2024-03-02T09:09:55;3.10;;;1.30;;
57643;SDS011;43474;46.510;6.686;2024-03-02T09:12:25;1.73;;;1.00;;
57643;SDS011;43474;46.510;6.686;2024-03-02T09:14:54;1.58;;;0.95;;
57643;SDS011;43474;46.510;6.686;2024-03-02T09:17:19;2.05;;;0.82;;
57643;SDS011;43474;46.510;6.686;2024-03-02T09:19:45;1.17;;;0.68;;
57643;SDS011;43474;46.510;6.686;2024-03-02T09:22:11;1.20;;;1.00;;
57643;SDS011;43474;46.510;6.686;2024-03-02T09:24:37;1.98;;;1.20;;
57643;SDS011;43474;46.510;6.686;2024-03-02T09:27:05;3.03;;;1.38;;
57643;SDS011;43474;46.510;6.686;2024-03-02T09:29:31;1.17;;;1.02;;
57643;SDS011;43474;46.510;6.686;2024-03-02T09:31:57;1.15;;;0.90;;
57643;SDS011;43474;46.510;6.686;2024-03-02T09:34:22;1.30;;;1.02;;
57643;SDS011;43474;46.510;6.686;2024-03-02T09:36:48;2.10;;;1.10;;
57643;SDS011;43474;46.510;6.686;2024-03-02T09:39:17;1.63;;;1.00;;
57643;SDS011;43474;46.510;6.686;2024-03-02T09:41:43;1.92;;;1.15;;
57643;SDS011;43474;46.510;6.686;2024-03-02T09:44:09;2.47;;;1.23;;
57643;SDS011;43474;46.510;6.686;2024-03-02T09:46:35;1.25;;;0.70;;
57643;SDS011;43474;46.510;6.686;2024-03-02T09:49:08;1.40;;;0.95;;
57643;SDS011;43474;46.510;6.686;2024-03-02T09:51:48;1.23;;;0.77;;
57643;SDS011;43474;46.510;6.686;2024-03-02T09:54:20;0.77;;;0.60;;
57643;SDS011;43474;46.510;6.686;2024-03-02T09:56:46;2.00;;;0.93;;
57643;SDS011;43474;46.510;6.686;2024-03-02T09:59:17;0.90;;;0.77;;
57643;SDS011;43474;46.510;6.686;2024-03-02T10:04:31;1.23;;;0.77;;
57643;SDS011;43474;46.510;6.686;2024-03-02T10:07:10;2.25;;;1.20;;
57643;SDS011;43474;46.510;6.686;2024-03-02T10:09:37;0.93;;;0.87;;
57643;SDS011;43474;46.510;6.686;2024-03-02T10:12:10;1.20;;;0.75;;
57643;SDS011;43474;46.510;6.686;2024-03-02T10:15:08;2.75;;;0.80;;
57643;SDS011;43474;46.510;6.686;2024-03-02T10:17:41;0.70;;;0.60;;
57643;SDS011;43474;46.510;6.686;2024-03-02T10:23:39;0.95;;;0.65;;
57643;SDS011;43474;46.510;6.686;2024-03-02T10:26:17;1.58;;;0.80;;
57643;SDS011;43474;46.510;6.686;2024-03-02T10:28:53;1.23;;;0.80;;
57643;SDS011;43474;46.510;6.686;2024-03-02T10:32:34;0.80;;;0.70;;
57643;SDS011;43474;46.510;6.686;2024-03-02T10:35:47;0.80;;;0.52;;
57643;SDS011;43474;46.510;6.686;2024-03-02T10:38:22;0.60;;;0.60;;
57643;SDS011;43474;46.510;6.686;2024-03-02T10:44:12;0.73;;;0.50;;
57643;SDS011;43474;46.510;6.686;2024-03-02T10:46:50;1.38;;;0.60;;
57643;SDS011;43474;46.510;6.686;2024-03-02T10:49:39;1.75;;;0.85;;
57643;SDS011;43474;46.510;6.686;2024-03-02T10:59:03;0.60;;;0.45;;
57643;SDS011;43474;46.510;6.686;2024-03-02T11:02:01;0.95;;;0.40;;
57643;SDS011;43474;46.510;6.686;2024-03-02T11:04:29;0.47;;;0.45;;
57643;SDS011;43474;46.510;6.686;2024-03-02T11:06:58;1.40;;;0.70;;
57643;SDS011;43474;46.510;6.686;2024-03-02T11:09:27;0.90;;;0.55;;
57643;SDS011;43474;46.510;6.686;2024-03-02T11:15:58;1.42;;;0.63;;
57643;SDS011;43474;46.510;6.686;2024-03-02T11:18:38;0.45;;;0.43;;
57643;SDS011;43474;46.510;6.686;2024-03-02T11:21:24;1.95;;;0.68;;
57643;SDS011;43474;46.510;6.686;2024-03-02T11:23:55;1.40;;;0.68;;
57643;SDS011;43474;46.510;6.686;2024-03-02T11:26:30;0.98;;;0.70;;
57643;SDS011;43474;46.510;6.686;2024-03-02T11:32:24;1.02;;;0.55;;
57643;SDS011;43474;46.510;6.686;2024-03-02T11:34:53;0.50;;;0.50;;
57643;SDS011;43474;46.510;6.686;2024-03-02T11:37:22;1.05;;;0.80;;
57643;SDS011;43474;46.510;6.686;2024-03-02T11:39:50;1.88;;;0.80;;
57643;SDS011;43474;46.510;6.686;2024-03-02T11:42:16;0.50;;;0.50;;
57643;SDS011;43474;46.510;6.686;2024-03-02T11:44:45;0.77;;;0.60;;
57643;SDS011;43474;46.510;6.686;2024-03-02T11:47:16;1.02;;;0.57;;
57643;SDS011;43474;46.510;6.686;2024-03-02T11:50:01;0.65;;;0.65;;
57643;SDS011;43474;46.510;6.686;2024-03-02T11:52:28;0.95;;;0.65;;
57643;SDS011;43474;46.510;6.686;2024-03-02T11:54:56;0.52;;;0.50;;
57643;SDS011;43474;46.510;6.686;2024-03-02T11:57:31;3.08;;;0.85;;
57643;SDS011;43474;46.510;6.686;2024-03-02T12:00:16;0.75;;;0.63;;
57643;SDS011;43474;46.510;6.686;2024-03-02T12:02:43;0.85;;;0.52;;
57643;SDS011;43474;46.510;6.686;2024-03-02T12:05:15;0.52;;;0.52;;
57643;SDS011;43474;46.510;6.686;2024-03-02T12:07:42;0.50;;;0.50;;
57643;SDS011;43474;46.510;6.686;2024-03-02T12:10:08;2.72;;;1.05;;
57643;SDS011;43474;46.510;6.686;2024-03-02T12:12:41;2.58;;;0.80;;
57643;SDS011;43474;46.510;6.686;2024-03-02T12:15:07;0.80;;;0.50;;
57643;SDS011;43474;46.510;6.686;2024-03-02T12:17:35;1.17;;;0.85;;
57643;SDS011;43474;46.510;6.686;2024-03-02T12:20:08;2.03;;;0.52;;
57643;SDS011;43474;46.510;6.686;2024-03-02T12:22:47;0.52;;;0.40;;
57643;SDS011;43474;46.510;6.686;2024-03-02T12:25:33;0.70;;;0.30;;
57643;SDS011;43474;46.510;6.686;2024-03-02T12:28:05;0.45;;;0.45;;
57643;SDS011;43474;46.510;6.686;2024-03-02T12:30:40;2.30;;;0.70;;
57643;SDS011;43474;46.510;6.686;2024-03-02T12:33:11;0.73;;;0.60;;
57643;SDS011;43474;46.510;6.686;2024-03-02T12:35:36;0.70;;;0.45;;
57643;SDS011;43474;46.510;6.686;2024-03-02T12:38:05;0.63;;;0.50;;
57643;SDS011;43474;46.510;6.686;2024-03-02T12:40:36;1.23;;;0.50;;
57643;SDS011;43474;46.510;6.686;2024-03-02T12:43:05;1.15;;;0.47;;
57643;SDS011;43474;46.510;6.686;2024-03-02T12:45:36;0.68;;;0.57;;
57643;SDS011;43474;46.510;6.686;2024-03-02T12:48:06;1.13;;;0.43;;
57643;SDS011;43474;46.510;6.686;2024-03-02T12:50:32;0.73;;;0.57;;
57643;SDS011;43474;46.510;6.686;2024-03-02T12:52:58;0.85;;;0.40;;
57643;SDS011;43474;46.510;6.686;2024-03-02T12:55:24;0.70;;;0.60;;
57643;SDS011;43474;46.510;6.686;2024-03-02T12:57:57;0.22;;;0.22;;
57643;SDS011;43474;46.510;6.686;2024-03-02T13:00:25;1.20;;;0.55;;
57643;SDS011;43474;46.510;6.686;2024-03-02T13:03:02;1.60;;;0.68;;
57643;SDS011;43474;46.510;6.686;2024-03-02T13:05:33;1.00;;;0.75;;
57643;SDS011;43474;46.510;6.686;2024-03-02T13:08:07;1.00;;;0.60;;
57643;SDS011;43474;46.510;6.686;2024-03-02T13:14:32;0.80;;;0.70;;
57643;SDS011;43474;46.510;6.686;2024-03-02T13:20:00;0.63;;;0.50;;
57643;SDS011;43474;46.510;6.686;2024-03-02T13:26:08;1.02;;;0.50;;
57643;SDS011;43474;46.510;6.686;2024-03-02T13:40:14;1.70;;;0.75;;
57643;SDS011;43474;46.510;6.686;2024-03-02T13:42:43;0.63;;;0.40;;
57643;SDS011;43474;46.510;6.686;2024-03-02T13:45:32;0.93;;;0.57;;
57643;SDS011;43474;46.510;6.686;2024-03-02T13:47:58;0.90;;;0.60;;
57643;SDS011;43474;46.510;6.686;2024-03-02T13:51:25;0.70;;;0.50;;
57643;SDS011;43474;46.510;6.686;2024-03-02T13:54:10;0.70;;;0.35;;
57643;SDS011;43474;46.510;6.686;2024-03-02T13:56:36;1.13;;;0.47;;
57643;SDS011;43474;46.510;6.686;2024-03-02T13:59:04;1.30;;;0.60;;
57643;SDS011;43474;46.510;6.686;2024-03-02T14:01:31;1.58;;;0.90;;
57643;SDS011;43474;46.510;6.686;2024-03-02T14:03:58;1.48;;;0.70;;
57643;SDS011;43474;46.510;6.686;2024-03-02T14:06:39;0.90;;;0.50;;
57643;SDS011;43474;46.510;6.686;2024-03-02T14:12:12;1.92;;;0.75;;
57643;SDS011;43474;46.510;6.686;2024-03-02T14:15:00;1.48;;;0.93;;
57643;SDS011;43474;46.510;6.686;2024-03-02T14:17:45;0.85;;;0.65;;
57643;SDS011;43474;46.510;6.686;2024-03-02T14:20:17;2.28;;;1.02;;
57643;SDS011;43474;46.510;6.686;2024-03-02T14:25:17;1.30;;;0.90;;
57643;SDS011;43474;46.510;6.686;2024-03-02T14:27:43;2.78;;;1.30;;
57643;SDS011;43474;46.510;6.686;2024-03-02T14:30:09;1.50;;;0.80;;
57643;SDS011;43474;46.510;6.686;2024-03-02T14:32:35;2.38;;;1.10;;
57643;SDS011;43474;46.510;6.686;2024-03-02T14:35:06;1.67;;;1.07;;
57643;SDS011;43474;46.510;6.686;2024-03-02T14:37:37;1.40;;;0.95;;
57643;SDS011;43474;46.510;6.686;2024-03-02T14:40:13;0.88;;;0.82;;
57643;SDS011;43474;46.510;6.686;2024-03-02T14:42:45;1.50;;;0.90;;
57643;SDS011;43474;46.510;6.686;2024-03-02T14:45:16;2.67;;;1.20;;
57643;SDS011;43474;46.510;6.686;2024-03-02T14:47:48;2.38;;;1.58;;
57643;SDS011;43474;46.510;6.686;2024-03-02T14:50:18;3.05;;;1.08;;
57643;SDS011;43474;46.510;6.686;2024-03-02T14:52:49;3.28;;;1.60;;
57643;SDS011;43474;46.510;6.686;2024-03-02T14:55:15;1.73;;;1.13;;
57643;SDS011;43474;46.510;6.686;2024-03-02T14:57:41;2.97;;;1.15;;
57643;SDS011;43474;46.510;6.686;2024-03-02T15:00:07;2.22;;;1.33;;
57643;SDS011;43474;46.510;6.686;2024-03-02T15:02:33;2.45;;;1.50;;
57643;SDS011;43474;46.510;6.686;2024-03-02T15:04:59;2.33;;;1.30;;
57643;SDS011;43474;46.510;6.686;2024-03-02T15:07:25;3.72;;;1.52;;
57643;SDS011;43474;46.510;6.686;2024-03-02T15:09:51;1.52;;;1.05;;
57643;SDS011;43474;46.510;6.686;2024-03-02T15:12:17;2.35;;;1.50;;
57643;SDS011;43474;46.510;6.686;2024-03-02T15:14:43;1.83;;;1.23;;
57643;SDS011;43474;46.510;6.686;2024-03-02T15:17:12;2.50;;;1.15;;
57643;SDS011;43474;46.510;6.686;2024-03-02T15:19:44;1.98;;;1.50;;
57643;SDS011;43474;46.510;6.686;2024-03-02T15:22:11;3.83;;;1.80;;
57643;SDS011;43474;46.510;6.686;2024-03-02T15:24:37;3.05;;;1.83;;
57643;SDS011;43474;46.510;6.686;2024-03-02T15:27:03;3.10;;;1.55;;
57643;SDS011;43474;46.510;6.686;2024-03-02T15:29:31;2.42;;;1.63;;
57643;SDS011;43474;46.510;6.686;2024-03-02T15:31:57;3.17;;;2.17;;
57643;SDS011;43474;46.510;6.686;2024-03-02T15:34:23;2.60;;;1.58;;
57643;SDS011;43474;46.510;6.686;2024-03-02T15:36:49;3.78;;;1.95;;
57643;SDS011;43474;46.510;6.686;2024-03-02T15:39:15;7.00;;;1.88;;
57643;SDS011;43474;46.510;6.686;2024-03-02T15:41:43;7.05;;;2.38;;
57643;SDS011;43474;46.510;6.686;2024-03-02T15:44:09;4.22;;;1.98;;
57643;SDS011;43474;46.510;6.686;2024-03-02T15:46:35;2.75;;;2.08;;
57643;SDS011;43474;46.510;6.686;2024-03-02T15:49:01;2.53;;;1.52;;
57643;SDS011;43474;46.510;6.686;2024-03-02T15:51:27;2.97;;;1.88;;
57643;SDS011;43474;46.510;6.686;2024-03-02T15:53:53;4.40;;;2.45;;
57643;SDS011;43474;46.510;6.686;2024-03-02T15:56:18;2.03;;;1.70;;
57643;SDS011;43474;46.510;6.686;2024-03-02T15:58:44;2.33;;;1.80;;
57643;SDS011;43474;46.510;6.686;2024-03-02T16:01:11;3.72;;;1.83;;